Time;durP1;ratioP1;P1;durP2;ratioP2;P2;SDS_P1;SDS_P2;PMS_P1;PMS_P2;Temp;Humidity;BMP_temperature;BMP_pressure;BME280_temperature;BME280_humidity;BME280_pressure;Samples;Min_cycle;Max_cycle;Signal;HPM_P1;HPM_P2
2022/05/04 00:02:00;;;;;;;1.27;0.70;;;10.00;99.90;;;;;;5024587;28;20447;-88
2022/05/04 00:04:28;;;;;;;1.43;0.80;;;9.90;99.90;;;;;;5018279;28;20454;-88
2022/05/04 00:06:55;;;;;;;0.70;0.50;;;10.00;99.90;;;;;;5017651;28;20954;-88
2022/05/04 00:09:22;;;;;;;0.70;0.50;;;9.90;99.90;;;;;;5017945;28;20491;-89
2022/05/04 00:11:49;;;;;;;0.83;0.60;;;9.80;99.90;;;;;;5017667;28;20447;-88
2022/05/04 00:14:16;;;;;;;1.00;0.77;;;9.80;99.90;;;;;;5017475;28;20860;-88
2022/05/04 00:16:42;;;;;;;0.70;0.53;;;9.80;99.90;;;;;;5017552;28;20454;-88
2022/05/04 00:19:09;;;;;;;1.47;0.47;;;9.80;99.90;;;;;;5017336;28;20479;-88
2022/05/04 00:21:37;;;;;;;1.03;0.50;;;9.70;99.90;;;;;;5017091;28;20455;-88
2022/05/04 00:24:05;;;;;;;0.50;0.37;;;9.70;99.90;;;;;;5017328;28;20436;-88
2022/05/04 00:26:31;;;;;;;1.13;0.90;;;9.70;99.90;;;;;;5017452;28;20438;-88
2022/05/04 00:28:58;;;;;;;0.60;0.50;;;9.70;99.90;;;;;;5016951;28;20471;-88
2022/05/04 00:31:25;;;;;;;0.83;0.40;;;9.70;99.90;;;;;;5017115;28;20477;-88
2022/05/04 00:33:51;;;;;;;0.40;0.40;;;9.70;99.90;;;;;;5017020;28;20434;-88
2022/05/04 00:36:18;;;;;;;0.50;0.50;;;9.60;99.90;;;;;;5017285;28;20451;-88
2022/05/04 00:38:46;;;;;;;0.77;0.77;;;9.60;99.90;;;;;;5017016;28;20478;-88
2022/05/04 00:41:13;;;;;;;1.07;1.07;;;9.60;99.90;;;;;;5016759;28;20514;-88
2022/05/04 00:43:40;;;;;;;0.70;0.30;;;9.60;99.90;;;;;;5016972;28;20447;-88
2022/05/04 00:46:06;;;;;;;0.53;0.40;;;9.60;99.90;;;;;;5016886;28;20443;-88
2022/05/04 00:48:34;;;;;;;0.40;0.30;;;9.60;99.90;;;;;;5016534;28;20562;-88
2022/05/04 00:51:01;;;;;;;0.40;0.40;;;9.60;99.90;;;;;;5016485;28;20471;-88
2022/05/04 00:53:28;;;;;;;0.40;0.30;;;9.60;99.90;;;;;;5016455;28;20447;-88
2022/05/04 00:55:59;;;;;;;0.50;0.50;;;9.70;99.90;;;;;;5016644;28;20440;-89
2022/05/04 01:01:10;;;;;;;0.30;0.30;;;9.70;99.90;;;;;;5016945;28;20408;-88
2022/05/04 01:03:38;;;;;;;1.77;0.77;;;9.70;99.90;;;;;;5016660;28;20447;-88
2022/05/04 01:06:04;;;;;;;0.40;0.40;;;9.70;99.90;;;;;;5016635;28;20498;-88
2022/05/04 01:08:31;;;;;;;0.60;0.43;;;9.70;99.90;;;;;;5016347;28;20472;-88
2022/05/04 01:10:59;;;;;;;0.60;0.60;;;9.70;99.90;;;;;;5016288;28;20484;-88
2022/05/04 01:13:26;;;;;;;10.00;1.80;;;9.70;99.90;;;;;;5016441;28;20478;-88
2022/05/04 01:15:53;;;;;;;0.60;0.40;;;9.60;99.90;;;;;;5016013;28;20455;-88
2022/05/04 01:18:20;;;;;;;0.43;0.37;;;9.60;99.90;;;;;;5016257;28;20463;-88
2022/05/04 01:20:46;;;;;;;1.67;0.53;;;9.60;99.90;;;;;;5016240;28;20462;-88
2022/05/04 01:23:14;;;;;;;0.50;0.50;;;9.60;99.90;;;;;;5015835;28;20961;-89
2022/05/04 01:29:03;;;;;;;0.37;0.30;;;9.60;99.90;;;;;;5016160;28;20422;-88
2022/05/04 01:31:30;;;;;;;1.33;0.40;;;9.60;99.90;;;;;;5015883;28;20436;-88
2022/05/04 01:33:57;;;;;;;1.20;0.37;;;9.60;99.90;;;;;;5016180;28;20459;-89
2022/05/04 01:36:24;;;;;;;0.50;0.50;;;9.60;99.90;;;;;;5015976;28;20451;-88
2022/05/04 01:38:52;;;;;;;0.40;0.40;;;9.60;99.90;;;;;;5016049;28;20468;-89
2022/05/04 01:44:03;;;;;;;1.23;0.40;;;9.60;99.90;;;;;;5016075;28;20507;-88
2022/05/04 01:46:29;;;;;;;0.70;0.37;;;9.50;99.90;;;;;;5015843;28;20470;-88
2022/05/04 01:48:56;;;;;;;0.40;0.40;;;9.50;99.90;;;;;;5015792;28;20526;-88
2022/05/04 01:51:23;;;;;;;0.70;0.50;;;9.50;99.90;;;;;;5015542;28;20482;-89
2022/05/04 01:53:51;;;;;;;0.80;0.40;;;9.50;99.90;;;;;;5015809;28;20478;-89
2022/05/04 01:56:18;;;;;;;0.47;0.47;;;9.50;99.90;;;;;;5015780;28;20908;-89
2022/05/04 01:58:45;;;;;;;0.60;0.37;;;9.60;99.90;;;;;;5015807;28;20479;-89
2022/05/04 02:01:12;;;;;;;0.50;0.40;;;9.60;99.90;;;;;;5014883;28;20451;-89
2022/05/04 02:03:39;;;;;;;0.43;0.43;;;9.60;99.90;;;;;;5015362;28;20443;-88
2022/05/04 02:06:06;;;;;;;0.60;0.37;;;9.60;99.90;;;;;;5015777;28;20993;-88
2022/05/04 02:08:34;;;;;;;2.70;0.70;;;9.60;99.90;;;;;;5015512;28;20475;-88
2022/05/04 02:11:02;;;;;;;0.60;0.50;;;9.70;99.90;;;;;;5015538;28;20569;-89
2022/05/04 02:13:28;;;;;;;0.50;0.43;;;9.70;99.90;;;;;;5015346;28;20443;-89
2022/05/04 02:15:55;;;;;;;0.40;0.30;;;9.80;99.90;;;;;;5016543;28;20451;-88
2022/05/04 02:18:22;;;;;;;0.60;0.43;;;9.80;99.90;;;;;;5015433;28;20451;-88
2022/05/04 02:20:49;;;;;;;0.70;0.50;;;9.90;99.90;;;;;;5015300;28;20452;-88
2022/05/04 02:23:15;;;;;;;0.87;0.40;;;9.90;99.90;;;;;;5015104;28;20431;-88
2022/05/04 02:25:42;;;;;;;0.93;0.93;;;9.90;99.90;;;;;;5015016;28;20448;-89
2022/05/04 02:28:10;;;;;;;1.90;0.53;;;10.00;99.90;;;;;;5015097;28;20476;-89
2022/05/04 02:30:37;;;;;;;2.00;0.60;;;10.00;99.90;;;;;;5015060;28;20510;-90
2022/05/04 02:33:04;;;;;;;1.60;0.50;;;10.00;99.90;;;;;;5015279;28;20455;-91
2022/05/04 02:38:15;;;;;;;0.40;0.37;;;10.00;99.90;;;;;;5015318;28;20431;-90
2022/05/04 02:40:42;;;;;;;0.40;0.30;;;10.00;99.90;;;;;;5015672;28;20483;-90
2022/05/04 02:43:10;;;;;;;0.90;0.90;;;10.00;99.90;;;;;;5015227;28;20451;-90
2022/05/04 02:45:37;;;;;;;0.70;0.57;;;10.00;99.90;;;;;;5015238;28;20452;-90
2022/05/04 02:48:04;;;;;;;2.53;1.40;;;10.00;99.90;;;;;;5019675;28;20443;-90
2022/05/04 02:50:30;;;;;;;1.33;0.57;;;9.90;99.90;;;;;;5017825;28;20483;-90
2022/05/04 02:52:57;;;;;;;0.63;0.63;;;9.80;99.90;;;;;;5015214;28;20448;-90
2022/05/04 02:55:24;;;;;;;0.40;0.30;;;9.80;99.90;;;;;;5014919;28;20436;-90
2022/05/04 02:57:50;;;;;;;0.50;0.50;;;9.80;99.90;;;;;;5014650;28;20442;-89
2022/05/04 03:00:19;;;;;;;0.87;0.30;;;9.80;99.90;;;;;;5014511;28;20460;-88
2022/05/04 03:02:45;;;;;;;1.17;0.50;;;9.80;99.90;;;;;;5015071;28;20957;-90
2022/05/04 03:05:14;;;;;;;0.50;0.50;;;9.80;99.90;;;;;;5016435;28;20531;-89
2022/05/04 03:07:40;;;;;;;0.60;0.47;;;9.80;99.90;;;;;;5013879;28;20470;-85
2022/05/04 03:10:08;;;;;;;1.70;0.77;;;9.80;99.90;;;;;;5013501;28;21038;-85
2022/05/04 03:12:35;;;;;;;1.27;0.77;;;9.80;99.90;;;;;;5013752;28;20443;-86
2022/05/04 03:15:02;;;;;;;0.40;0.40;;;9.80;99.90;;;;;;5013693;28;20775;-85
2022/05/04 03:17:30;;;;;;;0.90;0.90;;;9.80;99.90;;;;;;5013640;28;20482;-85
2022/05/04 03:19:58;;;;;;;0.30;0.30;;;9.80;99.90;;;;;;5013663;28;20466;-85
2022/05/04 03:22:25;;;;;;;1.23;0.60;;;9.80;99.90;;;;;;5013620;28;20454;-84
2022/05/04 03:24:52;;;;;;;0.60;0.50;;;9.80;99.90;;;;;;5013668;28;20538;-85
2022/05/04 03:27:19;;;;;;;0.47;0.47;;;9.80;99.90;;;;;;5013711;28;20527;-85
2022/05/04 03:29:46;;;;;;;0.30;0.30;;;9.80;99.90;;;;;;5013308;28;20464;-85
2022/05/04 03:32:12;;;;;;;0.70;0.40;;;9.80;99.90;;;;;;5013414;28;20911;-85
2022/05/04 03:34:40;;;;;;;0.40;0.40;;;9.80;99.90;;;;;;5013524;28;20443;-85
2022/05/04 03:37:07;;;;;;;1.67;0.73;;;9.90;99.90;;;;;;5013294;28;20781;-85
2022/05/04 03:39:34;;;;;;;1.00;0.60;;;9.90;99.90;;;;;;5013326;28;20488;-85
2022/05/04 03:42:01;;;;;;;1.23;0.90;;;9.90;99.90;;;;;;5013499;28;20455;-85
2022/05/04 03:44:27;;;;;;;0.60;0.53;;;9.90;99.90;;;;;;5013284;28;20444;-85
2022/05/04 03:46:54;;;;;;;0.40;0.33;;;9.90;99.90;;;;;;5013243;28;20443;-85
2022/05/04 03:49:23;;;;;;;0.30;0.30;;;9.90;99.90;;;;;;5013545;28;20470;-85
2022/05/04 03:51:51;;;;;;;0.67;0.50;;;10.00;99.90;;;;;;5013319;28;20570;-85
2022/05/04 03:54:19;;;;;;;0.93;0.93;;;10.00;99.90;;;;;;5013036;28;20454;-85
2022/05/04 03:56:45;;;;;;;1.57;1.47;;;9.90;99.90;;;;;;5013334;28;20770;-86
2022/05/04 03:59:12;;;;;;;1.87;1.77;;;9.90;99.90;;;;;;5012889;28;21024;-85
2022/05/04 04:01:39;;;;;;;0.60;0.60;;;9.90;99.90;;;;;;5013334;28;20456;-85
2022/05/04 04:04:06;;;;;;;1.30;0.67;;;9.90;99.90;;;;;;5013417;28;20447;-85
2022/05/04 04:06:33;;;;;;;1.40;0.70;;;9.90;99.90;;;;;;5013173;28;20466;-85
2022/05/04 04:09:02;;;;;;;0.70;0.50;;;9.80;99.90;;;;;;5013116;28;20491;-85
2022/05/04 04:11:29;;;;;;;0.80;0.60;;;9.80;99.90;;;;;;5012967;28;20479;-85
2022/05/04 04:13:56;;;;;;;0.50;0.40;;;9.80;99.90;;;;;;5012851;28;20452;-84
2022/05/04 04:16:22;;;;;;;1.87;0.80;;;9.80;99.90;;;;;;5012829;28;20971;-85
2022/05/04 04:18:49;;;;;;;0.50;0.50;;;9.80;99.90;;;;;;5013179;28;20479;-85
2022/05/04 04:24:01;;;;;;;0.90;0.40;;;9.80;99.90;;;;;;5015737;28;20415;-85
2022/05/04 04:26:29;;;;;;;0.60;0.60;;;9.90;99.90;;;;;;5016787;28;20443;-85
2022/05/04 04:28:56;;;;;;;1.57;0.63;;;9.90;99.90;;;;;;5016538;28;20554;-85
2022/05/04 04:31:22;;;;;;;0.40;0.30;;;9.90;99.90;;;;;;5016514;28;20494;-84
2022/05/04 04:33:49;;;;;;;0.40;0.40;;;10.00;99.90;;;;;;5016604;28;20451;-84
2022/05/04 04:36:16;;;;;;;0.63;0.63;;;10.00;99.90;;;;;;5016294;28;20454;-84
2022/05/04 04:38:43;;;;;;;0.90;0.60;;;10.00;99.90;;;;;;5016395;28;20482;-85
2022/05/04 04:41:11;;;;;;;0.67;0.60;;;10.00;99.90;;;;;;5016239;28;20479;-84
2022/05/04 04:43:37;;;;;;;1.00;1.00;;;10.10;99.90;;;;;;5016387;28;20447;-85
2022/05/04 04:46:04;;;;;;;0.60;0.60;;;10.10;99.90;;;;;;5016112;28;20451;-84
2022/05/04 04:48:31;;;;;;;2.00;0.60;;;10.10;99.90;;;;;;5016207;28;20552;-84
2022/05/04 04:50:58;;;;;;;2.10;0.97;;;10.10;99.90;;;;;;5016020;28;20486;-85
2022/05/04 04:53:25;;;;;;;0.60;0.50;;;10.10;99.90;;;;;;5016066;28;20951;-85
2022/05/04 04:55:51;;;;;;;0.60;0.60;;;10.10;99.90;;;;;;5016419;28;20444;-85
2022/05/04 04:58:20;;;;;;;1.70;0.73;;;10.10;99.90;;;;;;5016143;28;20820;-83
2022/05/04 05:00:46;;;;;;;0.50;0.50;;;10.10;99.90;;;;;;5016002;28;20448;-84
2022/05/04 05:03:13;;;;;;;0.50;0.43;;;10.10;99.90;;;;;;5015682;28;20431;-84
2022/05/04 05:05:42;;;;;;;1.23;0.70;;;10.10;99.90;;;;;;5015964;28;20935;-84
2022/05/04 05:08:09;;;;;;;1.40;0.67;;;10.20;99.90;;;;;;5015630;28;20886;-85
2022/05/04 05:10:36;;;;;;;0.33;0.33;;;10.20;99.90;;;;;;5015393;28;20480;-84
2022/05/04 05:13:04;;;;;;;0.30;0.30;;;10.30;99.90;;;;;;5015522;28;20447;-84
2022/05/04 05:18:16;;;;;;;0.50;0.50;;;10.30;99.90;;;;;;5015843;28;20424;-85
2022/05/04 05:20:43;;;;;;;2.27;1.13;;;10.30;99.90;;;;;;5015511;28;20463;-85
2022/05/04 05:23:10;;;;;;;0.40;0.30;;;10.40;99.90;;;;;;5015177;28;20958;-85
2022/05/04 05:25:37;;;;;;;0.40;0.40;;;10.40;99.90;;;;;;5015337;28;20440;-85
2022/05/04 05:28:05;;;;;;;3.53;2.03;;;10.40;99.90;;;;;;5015550;28;20446;-84
2022/05/04 05:30:33;;;;;;;0.50;0.50;;;10.50;99.90;;;;;;5015244;28;20483;-85
2022/05/04 05:33:00;;;;;;;0.77;0.70;;;10.50;99.90;;;;;;5015496;28;20452;-85
2022/05/04 05:35:26;;;;;;;1.23;0.73;;;10.50;99.90;;;;;;5022165;28;20502;-85
2022/05/04 05:37:53;;;;;;;0.83;0.80;;;10.60;99.90;;;;;;5015282;28;20918;-86
2022/05/04 05:40:20;;;;;;;0.67;0.50;;;10.60;99.90;;;;;;5015112;28;20483;-86
2022/05/04 05:42:46;;;;;;;0.60;0.60;;;10.60;99.90;;;;;;5015448;28;20451;-86
2022/05/04 05:45:14;;;;;;;0.70;0.53;;;10.50;99.90;;;;;;5015568;28;20436;-87
2022/05/04 05:47:42;;;;;;;0.70;0.70;;;10.50;99.90;;;;;;5015617;28;20459;-87
2022/05/04 05:50:10;;;;;;;0.50;0.50;;;10.50;99.90;;;;;;5015578;28;20463;-86
2022/05/04 05:52:36;;;;;;;0.60;0.50;;;10.50;99.90;;;;;;5015102;28;21012;-85
2022/05/04 05:55:04;;;;;;;1.47;1.10;;;10.50;99.90;;;;;;5015807;28;20436;-85
2022/05/04 05:57:33;;;;;;;3.50;1.43;;;10.50;99.90;;;;;;5014803;28;20501;-86
2022/05/04 06:00:00;;;;;;;0.60;0.50;;;10.50;99.90;;;;;;5014978;28;20537;-85
2022/05/04 06:02:28;;;;;;;1.03;0.40;;;10.50;99.90;;;;;;5014610;28;20443;-85
2022/05/04 06:04:56;;;;;;;4.53;0.90;;;10.50;99.90;;;;;;5014991;28;20455;-85
2022/05/04 06:07:23;;;;;;;0.40;0.40;;;10.50;99.90;;;;;;5014797;28;20455;-85
2022/05/04 06:09:49;;;;;;;1.27;0.43;;;10.60;99.90;;;;;;5014647;28;20471;-85
2022/05/04 06:12:16;;;;;;;2.30;0.87;;;10.60;99.90;;;;;;5014667;28;20502;-85
2022/05/04 06:14:43;;;;;;;0.70;0.70;;;10.60;99.90;;;;;;5014609;28;20458;-85
2022/05/04 06:17:09;;;;;;;0.57;0.43;;;10.70;99.90;;;;;;5014604;28;20443;-85
2022/05/04 06:19:36;;;;;;;0.50;0.40;;;10.70;99.90;;;;;;5014391;28;20990;-85
2022/05/04 06:22:05;;;;;;;0.73;0.40;;;10.80;99.90;;;;;;5014623;28;20447;-85
2022/05/04 06:24:31;;;;;;;0.80;0.80;;;10.80;99.90;;;;;;5014401;28;20867;-86
2022/05/04 06:26:58;;;;;;;0.60;0.60;;;10.80;99.90;;;;;;5014350;28;20443;-85
2022/05/04 06:34:06;;;;;;;0.70;0.50;;;10.80;99.90;;;;;;5014181;28;20986;-85
2022/05/04 06:34:56;;;;;;;0.60;0.47;;;10.90;99.90;;;;;;5014320;28;20447;-85
2022/05/04 06:37:24;;;;;;;0.80;0.77;;;11.10;99.90;;;;;;5014064;28;20431;-85
2022/05/04 06:39:51;;;;;;;4.83;0.60;;;11.20;99.90;;;;;;5014030;28;20842;-85
2022/05/04 06:42:18;;;;;;;0.70;0.57;;;11.20;99.90;;;;;;5014271;28;20448;-85
2022/05/04 06:44:45;;;;;;;0.60;0.50;;;11.30;99.90;;;;;;5014303;28;20448;-85
2022/05/04 06:47:12;;;;;;;1.43;0.50;;;11.40;99.90;;;;;;5013960;28;20455;-86
2022/05/04 06:49:39;;;;;;;0.30;0.30;;;11.50;99.90;;;;;;5013988;28;21001;-86
2022/05/04 06:52:06;;;;;;;1.50;0.50;;;11.50;99.90;;;;;;5014115;28;20541;-86
2022/05/04 06:54:34;;;;;;;3.13;0.70;;;11.60;99.90;;;;;;5014196;28;20451;-86
2022/05/04 06:57:01;;;;;;;3.00;0.60;;;11.60;99.90;;;;;;5014168;28;20447;-86
2022/05/04 06:59:28;;;;;;;3.90;0.90;;;11.60;99.90;;;;;;5013763;28;20978;-86
2022/05/04 07:01:54;;;;;;;0.70;0.70;;;11.60;99.90;;;;;;5014886;28;20447;-86
2022/05/04 07:04:21;;;;;;;0.60;0.43;;;11.50;99.90;;;;;;5014152;28;20456;-86
2022/05/04 07:06:48;;;;;;;0.57;0.57;;;11.50;99.90;;;;;;5014773;28;20478;-86
2022/05/04 07:09:15;;;;;;;1.00;0.60;;;11.60;99.90;;;;;;5014894;28;20476;-86
2022/05/04 07:11:43;;;;;;;0.50;0.50;;;11.60;99.90;;;;;;5015090;28;20542;-86
2022/05/04 07:14:10;;;;;;;1.10;0.70;;;11.60;99.90;;;;;;5015316;28;20443;-86
2022/05/04 07:16:37;;;;;;;1.53;1.20;;;11.60;99.90;;;;;;5015012;28;20927;-86
2022/05/04 07:19:04;;;;;;;0.40;0.40;;;11.70;99.90;;;;;;5015251;28;20468;-87
2022/05/04 07:21:31;;;;;;;0.60;0.60;;;11.80;99.90;;;;;;5014801;28;20931;-86
2022/05/04 07:23:57;;;;;;;1.70;0.93;;;11.90;99.90;;;;;;5015031;28;20451;-86
2022/05/04 07:26:24;;;;;;;1.73;0.60;;;11.90;99.90;;;;;;5014968;28;20439;-87
2022/05/04 07:28:52;;;;;;;0.70;0.70;;;11.90;99.90;;;;;;5014997;28;20954;-86
2022/05/04 07:31:19;;;;;;;0.60;0.50;;;12.00;99.90;;;;;;5015207;28;20483;-86
2022/05/04 07:33:45;;;;;;;1.50;1.00;;;12.20;99.90;;;;;;5015410;28;20452;-86
2022/05/04 07:36:12;;;;;;;1.90;0.93;;;12.40;99.90;;;;;;5015395;28;20452;-85
2022/05/04 07:38:39;;;;;;;1.43;1.37;;;12.50;99.90;;;;;;5015121;28;20558;-86
2022/05/04 07:43:52;;;;;;;3.87;1.90;;;12.80;99.90;;;;;;5015021;28;20414;-86
2022/05/04 07:46:19;;;;;;;0.87;0.60;;;12.90;99.90;;;;;;5015445;28;20432;-86
2022/05/04 07:48:46;;;;;;;1.37;0.60;;;12.90;99.90;;;;;;5015161;28;20475;-86
2022/05/04 07:51:12;;;;;;;3.57;0.93;;;12.90;99.90;;;;;;5014243;28;20487;-86
2022/05/04 07:53:39;;;;;;;1.40;0.80;;;13.00;99.90;;;;;;5014650;28;20444;-86
2022/05/04 07:56:06;;;;;;;1.17;0.80;;;13.00;99.90;;;;;;5015320;28;20568;-87
2022/05/04 07:58:33;;;;;;;0.73;0.70;;;13.10;99.90;;;;;;5016273;28;20459;-86
2022/05/04 08:06:30;;;;;;;1.77;0.90;;;13.90;99.90;;;;;;5019014;28;20408;-86
2022/05/04 08:08:57;;;;;;;0.80;0.80;;;14.20;99.90;;;;;;5019209;28;21010;-87
2022/05/04 08:11:23;;;;;;;0.97;0.60;;;14.30;99.90;;;;;;5018802;28;20471;-87
2022/05/04 08:13:50;;;;;;;2.50;0.87;;;14.40;99.90;;;;;;5018725;28;20928;-87
2022/05/04 08:16:18;;;;;;;1.30;0.73;;;14.40;99.90;;;;;;5019590;28;20446;-87
2022/05/04 08:18:45;;;;;;;1.10;0.50;;;14.40;99.90;;;;;;5023948;28;20495;-86
2022/05/04 08:21:12;;;;;;;1.13;0.57;;;14.40;99.90;;;;;;5023686;28;20427;-86
2022/05/04 08:23:40;;;;;;;0.57;0.57;;;14.40;99.90;;;;;;5021342;28;20442;-86
2022/05/04 08:26:07;;;;;;;0.50;0.50;;;14.30;99.90;;;;;;5022682;28;20448;-87
2022/05/04 08:28:34;;;;;;;1.90;0.50;;;14.20;99.90;;;;;;5023348;28;20478;-87
2022/05/04 08:31:01;;;;;;;1.63;0.63;;;14.10;99.90;;;;;;5020727;28;20443;-87
2022/05/04 08:33:29;;;;;;;0.40;0.40;;;14.10;99.90;;;;;;5020526;28;20495;-87
2022/05/04 08:35:56;;;;;;;0.70;0.70;;;14.20;99.90;;;;;;5021490;28;20456;-87
2022/05/04 08:38:23;;;;;;;0.93;0.70;;;14.10;99.90;;;;;;5020641;28;20456;-88
2022/05/04 08:40:52;;;;;;;0.60;0.43;;;14.10;99.90;;;;;;5020148;28;20472;-88
2022/05/04 08:43:21;;;;;;;0.50;0.50;;;14.10;99.90;;;;;;5020808;28;20444;-88
2022/05/04 08:45:52;;;;;;;1.73;0.73;;;14.20;99.90;;;;;;5023066;28;20444;-88
2022/05/04 08:48:19;;;;;;;0.70;0.67;;;14.10;99.90;;;;;;5019597;28;20438;-87
2022/05/04 08:50:47;;;;;;;0.60;0.50;;;14.20;99.90;;;;;;5019362;28;20440;-87
2022/05/04 08:53:14;;;;;;;0.73;0.60;;;14.20;99.90;;;;;;5019257;28;20479;-88
2022/05/04 08:55:42;;;;;;;2.70;0.90;;;14.30;99.90;;;;;;5019181;28;21038;-87
2022/05/04 08:58:08;;;;;;;0.50;0.50;;;14.30;99.90;;;;;;5018463;28;20440;-87
2022/05/04 09:00:35;;;;;;;0.50;0.50;;;14.50;99.90;;;;;;5017490;28;20479;-86
2022/05/04 09:03:02;;;;;;;0.73;0.70;;;14.50;99.90;;;;;;5018113;28;20452;-86
2022/05/04 09:05:30;;;;;;;0.47;0.47;;;14.70;99.90;;;;;;5017474;28;20444;-86
2022/05/04 09:07:59;;;;;;;1.33;0.97;;;15.00;99.90;;;;;;5017623;28;20448;-88
2022/05/04 09:10:27;;;;;;;0.60;0.43;;;15.30;99.90;;;;;;5017390;28;20471;-84
2022/05/04 09:12:56;;;;;;;1.10;0.60;;;15.50;99.90;;;;;;5016163;28;20526;-84
2022/05/04 09:15:25;;;;;;;1.00;0.70;;;15.70;99.90;;;;;;5016805;28;20459;-84
2022/05/04 09:18:00;;;;;;;0.50;0.50;;;15.80;99.90;;;;;;5016563;28;20459;-84
2022/05/04 09:20:47;;;;;;;1.07;0.67;;;16.00;99.90;;;;;;5015718;28;20455;-84
2022/05/04 09:23:18;;;;;;;1.27;0.70;;;16.10;99.90;;;;;;5016149;28;20462;-84
2022/05/04 09:25:45;;;;;;;0.70;0.60;;;16.10;99.90;;;;;;5016663;28;20537;-85
2022/05/04 09:28:14;;;;;;;1.13;0.70;;;16.30;99.90;;;;;;5015752;28;20836;-85
2022/05/04 09:30:49;;;;;;;0.73;0.63;;;16.40;99.90;;;;;;5015918;28;20478;-84
2022/05/04 09:33:20;;;;;;;1.13;0.87;;;16.50;99.90;;;;;;5015668;28;20494;-84
2022/05/04 09:35:47;;;;;;;2.83;0.80;;;16.50;99.90;;;;;;5016125;28;20942;-84
2022/05/04 09:46:39;;;;;;;2.37;1.03;;;18.00;99.90;;;;;;5015563;28;20825;-85
2022/05/04 09:49:14;;;;;;;2.80;1.00;;;18.30;99.90;;;;;;5015995;28;20463;-83
2022/05/04 09:51:43;;;;;;;1.63;1.27;;;18.50;99.90;;;;;;5016515;28;20440;-81
2022/05/04 09:54:16;;;;;;;2.03;1.10;;;18.80;99.90;;;;;;5015162;28;20466;-84
2022/05/04 09:56:44;;;;;;;0.83;0.80;;;19.20;99.90;;;;;;5015045;28;20435;-82
2022/05/04 09:59:12;;;;;;;1.07;0.90;;;19.40;99.90;;;;;;5015770;28;20467;-87
2022/05/04 10:01:40;;;;;;;1.97;1.10;;;19.70;99.90;;;;;;5016592;28;20459;-86
2022/05/04 10:04:07;;;;;;;1.97;1.40;;;20.00;99.90;;;;;;5016634;28;20408;-87
2022/05/04 10:06:34;;;;;;;1.10;1.03;;;20.30;99.90;;;;;;5016434;28;20435;-87
2022/05/04 10:09:02;;;;;;;1.47;1.23;;;20.60;99.90;;;;;;5016891;28;20860;-86
2022/05/04 10:11:31;;;;;;;1.20;0.80;;;20.70;99.90;;;;;;5016108;28;20440;-87
2022/05/04 10:14:03;;;;;;;3.07;0.80;;;20.60;99.90;;;;;;5015670;28;21061;-87
2022/05/04 10:16:33;;;;;;;0.97;0.90;;;20.60;99.90;;;;;;5016125;28;20878;-87
2022/05/04 10:19:04;;;;;;;1.73;0.93;;;20.60;99.90;;;;;;5015885;28;20468;-86
2022/05/04 10:21:32;;;;;;;1.57;1.13;;;20.50;99.90;;;;;;5015474;28;20887;-86
2022/05/04 10:24:02;;;;;;;1.37;1.20;;;20.60;99.90;;;;;;5016102;28;20439;-87
2022/05/04 10:26:34;;;;;;;1.57;1.47;;;20.60;99.90;;;;;;5015495;28;21014;-86
2022/05/04 10:32:04;;;;;;;4.73;1.50;;;20.70;99.90;;;;;;5015826;28;20411;-87
2022/05/04 10:34:31;;;;;;;1.00;1.00;;;20.60;99.90;;;;;;5015978;28;20436;-86
2022/05/04 10:36:58;;;;;;;1.20;1.10;;;20.90;99.90;;;;;;5017160;28;20450;-87
2022/05/04 10:39:25;;;;;;;2.10;1.13;;;21.20;99.90;;;;;;5017732;28;20522;-86
2022/05/04 10:41:53;;;;;;;1.20;1.10;;;21.50;99.90;;;;;;5017364;28;20446;-86
2022/05/04 10:44:51;;;;;;;2.17;1.40;;;21.70;99.90;;;;;;5017274;28;20200;-86
2022/05/04 10:47:19;;;;;;;2.47;1.90;;;21.50;99.90;;;;;;5015415;28;20455;-86
2022/05/04 10:49:46;;;;;;;1.80;0.90;;;21.20;99.90;;;;;;5015801;28;20479;-86
2022/05/04 10:52:13;;;;;;;2.17;1.20;;;21.10;99.90;;;;;;5014843;28;20489;-86
2022/05/04 10:54:49;;;;;;;1.33;1.23;;;20.90;99.90;;;;;;5014860;28;20435;-86
2022/05/04 10:57:17;;;;;;;0.93;0.90;;;21.10;99.90;;;;;;5014699;28;20479;-86
2022/05/04 10:59:48;;;;;;;1.33;1.23;;;21.10;99.90;;;;;;5019361;28;20827;-86
2022/05/04 11:02:19;;;;;;;1.77;1.17;;;20.90;99.90;;;;;;5014658;28;20466;-86
2022/05/04 11:04:54;;;;;;;1.53;1.43;;;20.70;99.90;;;;;;5014462;28;20450;-86
2022/05/04 11:07:28;;;;;;;1.60;1.23;;;20.60;99.90;;;;;;5014377;28;20913;-86
2022/05/04 11:10:01;;;;;;;1.47;0.90;;;20.40;99.90;;;;;;5014857;28;20475;-85
2022/05/04 11:12:29;;;;;;;2.63;1.10;;;20.10;99.90;;;;;;5014550;28;20467;-84
2022/05/04 11:14:55;;;;;;;1.70;1.07;;;19.90;99.90;;;;;;5014418;28;20442;-86
2022/05/04 11:17:22;;;;;;;1.57;0.93;;;19.60;99.90;;;;;;5014664;28;20957;-86
2022/05/04 11:19:50;;;;;;;1.47;1.20;;;19.40;99.90;;;;;;5014262;28;20819;-86
2022/05/04 11:22:18;;;;;;;2.00;1.07;;;19.40;99.90;;;;;;5014769;28;20447;-85
2022/05/04 11:24:45;;;;;;;2.40;1.10;;;19.30;99.90;;;;;;5013919;28;20507;-85
2022/05/04 11:27:17;;;;;;;1.10;0.90;;;19.20;99.90;;;;;;5014124;28;20443;-85
2022/05/04 11:29:45;;;;;;;0.97;0.80;;;19.30;99.90;;;;;;5014085;28;20459;-85
2022/05/04 11:32:19;;;;;;;1.87;0.90;;;19.40;99.90;;;;;;5013632;28;20535;-85
2022/05/04 11:34:46;;;;;;;1.77;0.80;;;19.50;99.90;;;;;;5018207;28;20439;-85
2022/05/04 11:37:14;;;;;;;2.93;1.23;;;19.50;99.90;;;;;;5017624;28;20435;-85
2022/05/04 11:39:42;;;;;;;0.80;0.80;;;19.60;99.90;;;;;;5017722;28;20516;-86
2022/05/04 11:42:09;;;;;;;1.20;0.90;;;19.70;99.90;;;;;;5017601;28;21004;-85
2022/05/04 11:44:38;;;;;;;3.07;0.90;;;19.70;99.90;;;;;;5017930;28;20438;-85
2022/05/04 11:47:08;;;;;;;1.43;0.80;;;19.70;99.90;;;;;;5018260;28;20443;-83
2022/05/04 11:49:35;;;;;;;1.13;0.80;;;19.60;99.90;;;;;;5017421;28;20517;-84
2022/05/04 11:52:02;;;;;;;0.97;0.87;;;19.50;99.90;;;;;;5017717;28;20435;-83
2022/05/04 11:54:29;;;;;;;1.90;1.10;;;19.40;99.90;;;;;;5016889;28;20534;-83
2022/05/04 11:56:56;;;;;;;0.97;0.80;;;19.40;99.90;;;;;;5017109;28;20452;-83
2022/05/04 11:59:29;;;;;;;0.80;0.80;;;19.60;99.90;;;;;;5016923;28;20463;-83
2022/05/04 12:01:57;;;;;;;0.70;0.70;;;19.70;99.90;;;;;;5017008;28;20423;-83
2022/05/04 12:04:27;;;;;;;2.83;0.90;;;19.70;99.90;;;;;;5016713;28;20450;-83
2022/05/04 12:06:54;;;;;;;0.80;0.67;;;19.70;99.90;;;;;;5016950;28;20494;-83
2022/05/04 12:09:22;;;;;;;0.67;0.67;;;19.80;99.90;;;;;;5016395;28;21024;-83
2022/05/04 12:11:49;;;;;;;1.50;1.40;;;19.50;99.90;;;;;;5016864;28;20443;-83
2022/05/04 12:14:17;;;;;;;0.60;0.60;;;19.50;99.90;;;;;;5016613;28;20479;-83
2022/05/04 12:16:44;;;;;;;0.93;0.80;;;19.40;99.90;;;;;;5016664;28;20462;-83
2022/05/04 12:19:11;;;;;;;0.93;0.83;;;19.40;99.50;;;;;;5016698;28;20467;-83
2022/05/04 12:21:40;;;;;;;1.20;0.80;;;19.40;99.90;;;;;;5017039;28;20478;-82
2022/05/04 12:24:07;;;;;;;0.80;0.80;;;19.40;99.90;;;;;;5016592;28;20441;-83
2022/05/04 12:26:34;;;;;;;1.00;0.90;;;19.40;99.60;;;;;;5016510;28;20458;-79
2022/05/04 12:34:31;;;;;;;2.80;0.90;;;19.50;96.70;;;;;;5016502;28;20504;-82
2022/05/04 12:37:01;;;;;;;1.40;1.10;;;19.40;96.70;;;;;;5016335;28;20459;-83
2022/05/04 12:39:30;;;;;;;0.60;0.50;;;19.40;97.30;;;;;;5015886;28;21116;-82
2022/05/04 12:41:57;;;;;;;0.90;0.57;;;19.30;98.70;;;;;;5016388;28;20451;-83
2022/05/04 12:44:24;;;;;;;2.30;0.60;;;19.10;98.20;;;;;;5015676;28;20970;-82
2022/05/04 12:46:53;;;;;;;1.10;0.63;;;19.10;97.80;;;;;;5016223;28;20439;-82
2022/05/04 12:49:21;;;;;;;0.60;0.60;;;18.90;98.00;;;;;;5016152;28;20518;-83
2022/05/04 12:51:48;;;;;;;1.30;1.20;;;18.90;97.00;;;;;;5015863;28;20958;-83
2022/05/04 12:54:17;;;;;;;1.00;0.80;;;18.80;99.20;;;;;;5015640;28;21006;-82
2022/05/04 12:56:46;;;;;;;0.60;0.60;;;18.60;99.90;;;;;;5015825;28;20452;-80
2022/05/04 12:59:13;;;;;;;0.80;0.63;;;18.40;99.90;;;;;;5015827;28;20482;-81
2022/05/04 13:01:40;;;;;;;1.33;0.90;;;18.30;99.90;;;;;;5015841;28;20451;-81
2022/05/04 13:04:07;;;;;;;0.90;0.80;;;18.00;99.90;;;;;;5015669;28;20450;-82
2022/05/04 13:06:34;;;;;;;0.40;0.40;;;17.80;99.90;;;;;;5015842;28;20451;-81
2022/05/04 13:09:00;;;;;;;0.60;0.50;;;17.50;99.90;;;;;;5016257;28;20468;-81
2022/05/04 13:11:30;;;;;;;0.67;0.60;;;17.40;99.90;;;;;;5019931;28;20462;-82
2022/05/04 13:13:57;;;;;;;2.00;0.60;;;17.30;99.90;;;;;;5018915;28;20850;-81
2022/05/04 13:16:23;;;;;;;0.67;0.67;;;17.10;99.90;;;;;;5018521;28;20463;-82
2022/05/04 13:18:50;;;;;;;0.60;0.60;;;17.00;99.90;;;;;;5015666;28;20510;-82
2022/05/04 13:21:18;;;;;;;0.90;0.50;;;17.00;99.90;;;;;;5015569;28;20463;-82
2022/05/04 13:23:45;;;;;;;0.77;0.63;;;17.00;99.90;;;;;;5015493;28;20451;-82
2022/05/04 13:26:12;;;;;;;0.60;0.60;;;16.90;99.90;;;;;;5015086;28;20475;-82
2022/05/04 13:28:40;;;;;;;0.63;0.53;;;16.90;99.90;;;;;;5015287;28;20482;-81
2022/05/04 13:31:07;;;;;;;1.07;0.67;;;16.90;99.90;;;;;;5015319;28;20459;-82
2022/05/04 13:33:34;;;;;;;0.47;0.47;;;16.90;99.90;;;;;;5015133;28;20537;-81
2022/05/04 13:36:01;;;;;;;0.50;0.50;;;16.90;99.90;;;;;;5015352;28;20452;-82
2022/05/04 13:38:27;;;;;;;7.33;0.83;;;16.90;99.90;;;;;;5014855;28;20436;-82